Wetterdaten: Dienstag, 23.02.2010
Datum Zeit Temp. A. Feuchte A. Luftdruck Regen Wind Richtung Richtung Sonnenschein UV Solar Windben
23.02.2010 00:00 8,5 C 86 % 984,8 hPa 0,0 mm 9,7 km/h (2 Bft) SW 225 0 min 0 UV-I 0 W/m 25,7 km/h (4 Bft)
23.02.2010 00:10 8,5 C 86 % 984,8 hPa 0,0 mm 9,7 km/h (2 Bft) S-SW 202 0 min 0 UV-I 0 W/m 27,4 km/h (4 Bft)
23.02.2010 00:20 8,5 C 86 % 984,8 hPa 0,0 mm 8,0 km/h (2 Bft) SW 225 0 min 0 UV-I 0 W/m 24,1 km/h (4 Bft)
23.02.2010 00:30 8,6 C 85 % 984,8 hPa 0,0 mm 8,0 km/h (2 Bft) S-SW 202 0 min 0 UV-I 0 W/m 19,3 km/h (3 Bft)
23.02.2010 00:40 8,6 C 85 % 984,9 hPa 0,0 mm 8,0 km/h (2 Bft) SW 225 0 min 0 UV-I 0 W/m 24,1 km/h (4 Bft)
23.02.2010 00:50 8,7 C 85 % 985,0 hPa 0,0 mm 11,3 km/h (2 Bft) S-SW 202 0 min 0 UV-I 0 W/m 30,6 km/h (5 Bft)
23.02.2010 01:00 8,8 C 85 % 985,1 hPa 0,0 mm 9,7 km/h (2 Bft) SW 225 0 min 0 UV-I 0 W/m 29,0 km/h (5 Bft)
23.02.2010 01:10 8,8 C 86 % 985,3 hPa 0,3 mm 6,4 km/h (2 Bft) SW 225 0 min 0 UV-I 0 W/m 19,3 km/h (3 Bft)
23.02.2010 01:20 8,7 C 86 % 985,3 hPa 0,0 mm 8,0 km/h (2 Bft) SW 225 0 min 0 UV-I 0 W/m 20,9 km/h (4 Bft)
23.02.2010 01:30 8,6 C 86 % 985,4 hPa 0,0 mm 8,0 km/h (2 Bft) SW 225 0 min 0 UV-I 0 W/m 20,9 km/h (4 Bft)
23.02.2010 01:40 8,6 C 87 % 985,5 hPa 0,0 mm 9,7 km/h (2 Bft) SW 225 0 min 0 UV-I 0 W/m 24,1 km/h (4 Bft)
23.02.2010 01:50 8,5 C 87 % 985,6 hPa 0,0 mm 8,0 km/h (2 Bft) SW 225 0 min 0 UV-I 0 W/m 22,5 km/h (4 Bft)
23.02.2010 02:00 8,4 C 88 % 985,6 hPa 0,3 mm 8,0 km/h (2 Bft) SW 225 0 min 0 UV-I 0 W/m 24,1 km/h (4 Bft)
23.02.2010 02:10 8,4 C 88 % 985,7 hPa 0,0 mm 8,0 km/h (2 Bft) SW 225 0 min 0 UV-I 0 W/m 22,5 km/h (4 Bft)
23.02.2010 02:20 8,3 C 89 % 985,9 hPa 0,0 mm 8,0 km/h (2 Bft) W-SW 247 0 min 0 UV-I 0 W/m 20,9 km/h (4 Bft)
23.02.2010 02:30 8,3 C 89 % 985,9 hPa 0,0 mm 8,0 km/h (2 Bft) SW 225 0 min 0 UV-I 0 W/m 22,5 km/h (4 Bft)
23.02.2010 02:40 8,2 C 89 % 986,0 hPa 0,0 mm 6,4 km/h (2 Bft) SW 225 0 min 0 UV-I 0 W/m 16,1 km/h (3 Bft)
23.02.2010 02:50 8,2 C 89 % 986,0 hPa 0,3 mm 6,4 km/h (2 Bft) W-SW 247 0 min 0 UV-I 0 W/m 17,7 km/h (3 Bft)
23.02.2010 03:00 8,1 C 89 % 986,0 hPa 0,0 mm 8,0 km/h (2 Bft) W-SW 247 0 min 0 UV-I 0 W/m 22,5 km/h (4 Bft)
23.02.2010 03:10 8,1 C 90 % 986,2 hPa 0,0 mm 6,4 km/h (2 Bft) W-SW 247 0 min 0 UV-I 0 W/m 19,3 km/h (3 Bft)
23.02.2010 03:20 8,1 C 90 % 986,4 hPa 0,3 mm 8,0 km/h (2 Bft) SW 225 0 min 0 UV-I 0 W/m 25,7 km/h (4 Bft)
23.02.2010 03:30 8,1 C 90 % 986,4 hPa 0,0 mm 6,4 km/h (2 Bft) W-SW 247 0 min 0 UV-I 0 W/m 20,9 km/h (4 Bft)
23.02.2010 03:40 8,1 C 90 % 986,6 hPa 0,0 mm 6,4 km/h (2 Bft) W-SW 247 0 min 0 UV-I 0 W/m 19,3 km/h (3 Bft)
23.02.2010 03:50 8,1 C 90 % 986,7 hPa 0,0 mm 6,4 km/h (2 Bft) W-SW 247 0 min 0 UV-I 0 W/m 17,7 km/h (3 Bft)
23.02.2010 04:00 8,1 C 90 % 986,8 hPa 0,0 mm 6,4 km/h (2 Bft) W-SW 247 0 min 0 UV-I 0 W/m 19,3 km/h (3 Bft)
23.02.2010 04:10 8,1 C 90 % 986,9 hPa 0,0 mm 8,0 km/h (2 Bft) W-SW 247 0 min 0 UV-I 0 W/m 22,5 km/h (4 Bft)
23.02.2010 04:20 8,1 C 90 % 987,0 hPa 0,0 mm 9,7 km/h (2 Bft) W-SW 247 0 min 0 UV-I 0 W/m 24,1 km/h (4 Bft)
23.02.2010 04:30 8,1 C 90 % 987,1 hPa 0,0 mm 8,0 km/h (2 Bft) W-SW 247 0 min 0 UV-I 0 W/m 17,7 km/h (3 Bft)
23.02.2010 04:40 8,1 C 90 % 987,2 hPa 0,0 mm 4,8 km/h (1 Bft) W-SW 247 0 min 0 UV-I 0 W/m 17,7 km/h (3 Bft)
23.02.2010 04:50 8,0 C 90 % 987,3 hPa 0,0 mm 4,8 km/h (1 Bft) W 270 0 min 0 UV-I 0 W/m 17,7 km/h (3 Bft)
23.02.2010 05:00 7,9 C 90 % 987,5 hPa 0,3 mm 4,8 km/h (1 Bft) SW 225 0 min 0 UV-I 0 W/m 11,3 km/h (2 Bft)
23.02.2010 05:10 7,9 C 90 % 987,7 hPa 0,0 mm 3,2 km/h (1 Bft) W-SW 247 0 min 0 UV-I 0 W/m 11,3 km/h (2 Bft)
23.02.2010 05:20 7,9 C 90 % 987,8 hPa 0,0 mm 4,8 km/h (1 Bft) W-SW 247 0 min 0 UV-I 0 W/m 17,7 km/h (3 Bft)
23.02.2010 05:30 7,8 C 91 % 988,2 hPa 0,3 mm 8,0 km/h (2 Bft) W 270 0 min 0 UV-I 0 W/m 20,9 km/h (4 Bft)
23.02.2010 05:40 7,7 C 90 % 988,5 hPa 0,3 mm 4,8 km/h (1 Bft) NW 315 0 min 0 UV-I 0 W/m 19,3 km/h (3 Bft)
23.02.2010 05:50 7,3 C 90 % 988,6 hPa 0,0 mm 1,6 km/h (1 Bft) NW 315 0 min 0 UV-I 0 W/m 9,7 km/h (2 Bft)
23.02.2010 06:00 6,9 C 90 % 988,8 hPa 0,3 mm 4,8 km/h (1 Bft) W 270 0 min 0 UV-I 0 W/m 16,1 km/h (3 Bft)
23.02.2010 06:10 6,5 C 90 % 989,0 hPa 0,3 mm 4,8 km/h (1 Bft) W-NW 292 0 min 0 UV-I 0 W/m 11,3 km/h (2 Bft)
23.02.2010 06:20 6,1 C 89 % 989,1 hPa 0,0 mm 3,2 km/h (1 Bft) W-NW 292 0 min 0 UV-I 0 W/m 9,7 km/h (2 Bft)
23.02.2010 06:30 5,8 C 89 % 989,4 hPa 0,0 mm 3,2 km/h (1 Bft) NW 315 0 min 0 UV-I 0 W/m 11,3 km/h (2 Bft)
23.02.2010 06:40 5,5 C 89 % 989,5 hPa 0,3 mm 4,8 km/h (1 Bft) N-NO 22 0 min 0 UV-I 0 W/m 20,9 km/h (4 Bft)
23.02.2010 06:50 5,0 C 89 % 989,9 hPa 0,0 mm 4,8 km/h (1 Bft) N-NO 22 0 min 0 UV-I 0 W/m 16,1 km/h (3 Bft)
23.02.2010 07:00 4,6 C 89 % 990,0 hPa 0,0 mm 1,6 km/h (1 Bft) N 360 0 min 0 UV-I 0 W/m 6,4 km/h (2 Bft)
23.02.2010 07:10 4,2 C 89 % 990,2 hPa 0,0 mm 1,6 km/h (1 Bft) N 360 0 min 0 UV-I 0 W/m 6,4 km/h (2 Bft)
23.02.2010 07:20 3,9 C 89 % 990,7 hPa 0,0 mm 0,0 km/h (0 Bft) N-NW 337 0 min 0 UV-I 0 W/m 3,2 km/h (1 Bft)
23.02.2010 07:30 3,6 C 89 % 990,7 hPa 0,3 mm 0,0 km/h (0 Bft) N-NW 337 0 min 0 UV-I 0 W/m 4,8 km/h (1 Bft)
23.02.2010 07:40 3,4 C 89 % 991,0 hPa 0,0 mm 0,0 km/h (0 Bft) N-NW 337 0 min 0 UV-I 0 W/m 3,2 km/h (1 Bft)
23.02.2010 07:50 3,3 C 89 % 991,2 hPa 0,0 mm 0,0 km/h (0 Bft) N-NW 337 0 min 0 UV-I 0 W/m 4,8 km/h (1 Bft)
23.02.2010 08:00 3,1 C 89 % 991,3 hPa 0,0 mm 0,5 km/h (0 Bft) N-NW 338 0 min 0 UV-I 0 W/m 1,6 km/h (1 Bft)
23.02.2010 08:10 3,0 C 89 % 991,6 hPa 0,0 mm 0,0 km/h (0 Bft) N-NW 337 0 min 0 UV-I 0 W/m 3,2 km/h (1 Bft)
23.02.2010 08:20 2,9 C 89 % 991,8 hPa 0,3 mm 0,0 km/h (0 Bft) N 360 0 min 0 UV-I 5 W/m 4,8 km/h (1 Bft)
23.02.2010 08:30 2,8 C 89 % 991,9 hPa 0,0 mm 0,0 km/h (0 Bft) N 360 0 min 0 UV-I 9 W/m 3,2 km/h (1 Bft)
23.02.2010 08:40 2,8 C 90 % 992,1 hPa 0,0 mm 0,0 km/h (0 Bft) N 360 0 min 0 UV-I 9 W/m 3,2 km/h (1 Bft)
23.02.2010 08:50 2,7 C 89 % 992,3 hPa 0,0 mm 1,6 km/h (1 Bft) N 360 0 min 0 UV-I 11 W/m 4,8 km/h (1 Bft)
23.02.2010 09:00 2,6 C 90 % 992,3 hPa 0,0 mm 0,0 km/h (0 Bft) N-NW 337 0 min 0 UV-I 19 W/m 4,8 km/h (1 Bft)
23.02.2010 09:10 2,5 C 90 % 992,5 hPa 0,0 mm 0,0 km/h (0 Bft) N-NW 337 0 min 0 UV-I 26 W/m 6,4 km/h (2 Bft)
23.02.2010 09:20 2,4 C 90 % 992,6 hPa 0,3 mm 3,2 km/h (1 Bft) N 360 0 min 0 UV-I 26 W/m 8,0 km/h (2 Bft)
23.02.2010 09:30 2,3 C 90 % 992,7 hPa 0,0 mm 3,2 km/h (1 Bft) N 360 0 min 0 UV-I 72 W/m 8,0 km/h (2 Bft)
23.02.2010 09:40 2,3 C 90 % 992,8 hPa 0,0 mm 3,2 km/h (1 Bft) N 360 0 min 0 UV-I 76 W/m 14,5 km/h (3 Bft)
23.02.2010 09:50 2,3 C 90 % 992,8 hPa 0,0 mm 3,2 km/h (1 Bft) N 360 0 min 0 UV-I 63 W/m 11,3 km/h (2 Bft)
23.02.2010 10:00 2,2 C 90 % 992,9 hPa 0,0 mm 3,2 km/h (1 Bft) N-NO 22 0 min 0 UV-I 69 W/m 9,7 km/h (2 Bft)
23.02.2010 10:10 2,2 C 91 % 993,0 hPa 0,0 mm 3,2 km/h (1 Bft) N-NO 22 0 min 0 UV-I 70 W/m 8,0 km/h (2 Bft)
23.02.2010 10:20 2,2 C 91 % 993,1 hPa 0,0 mm 4,8 km/h (1 Bft) N-NO 22 0 min 1 UV-I 81 W/m 9,7 km/h (2 Bft)
23.02.2010 10:30 2,2 C 91 % 993,2 hPa 0,0 mm 3,2 km/h (1 Bft) N-NO 22 0 min 1 UV-I 83 W/m 9,7 km/h (2 Bft)
23.02.2010 10:40 2,3 C 91 % 993,3 hPa 0,0 mm 3,2 km/h (1 Bft) N-NO 22 0 min 1 UV-I 86 W/m 11,3 km/h (2 Bft)
23.02.2010 10:50 2,3 C 91 % 993,5 hPa 0,0 mm 3,2 km/h (1 Bft) N 360 0 min 1 UV-I 93 W/m 8,0 km/h (2 Bft)
23.02.2010 11:00 2,4 C 91 % 993,5 hPa 0,0 mm 3,2 km/h (1 Bft) N 360 0 min 1 UV-I 98 W/m 9,7 km/h (2 Bft)
23.02.2010 11:10 2,4 C 91 % 993,6 hPa 0,0 mm 3,2 km/h (1 Bft) N 360 0 min 1 UV-I 100 W/m 9,7 km/h (2 Bft)
23.02.2010 11:20 2,5 C 91 % 993,7 hPa 0,0 mm 1,6 km/h (1 Bft) N-NO 22 0 min 1 UV-I 90 W/m 4,8 km/h (1 Bft)
23.02.2010 11:30 2,6 C 91 % 993,8 hPa 0,0 mm 3,2 km/h (1 Bft) N-NO 22 0 min 1 UV-I 93 W/m 8,0 km/h (2 Bft)
23.02.2010 11:40 2,6 C 91 % 993,9 hPa 0,0 mm 4,8 km/h (1 Bft) N 360 0 min 1 UV-I 137 W/m 9,7 km/h (2 Bft)
23.02.2010 11:50 2,6 C 92 % 994,0 hPa 0,3 mm 4,8 km/h (1 Bft) N-NO 22 0 min 1 UV-I 158 W/m 11,3 km/h (2 Bft)
23.02.2010 12:00 2,7 C 92 % 994,0 hPa 0,0 mm 3,2 km/h (1 Bft) N 360 0 min 1 UV-I 146 W/m 9,7 km/h (2 Bft)
23.02.2010 12:10 2,7 C 92 % 994,0 hPa 0,0 mm 4,8 km/h (1 Bft) N 360 0 min 1 UV-I 116 W/m 11,3 km/h (2 Bft)
23.02.2010 12:20 2,7 C 92 % 994,1 hPa 0,0 mm 3,2 km/h (1 Bft) N-NO 22 0 min 1 UV-I 91 W/m 9,7 km/h (2 Bft)
23.02.2010 12:30 2,7 C 91 % 994,1 hPa 0,0 mm 3,2 km/h (1 Bft) N-NO 22 0 min 1 UV-I 91 W/m 9,7 km/h (2 Bft)
23.02.2010 12:40 2,8 C 92 % 994,1 hPa 0,0 mm 3,2 km/h (1 Bft) NO 45 0 min 1 UV-I 91 W/m 8,0 km/h (2 Bft)
23.02.2010 12:50 2,8 C 91 % 994,3 hPa 0,0 mm 4,8 km/h (1 Bft) O-NO 67 0 min 1 UV-I 90 W/m 14,5 km/h (3 Bft)
23.02.2010 13:00 2,8 C 91 % 994,3 hPa 0,0 mm 3,2 km/h (1 Bft) N-NO 22 0 min 1 UV-I 98 W/m 9,7 km/h (2 Bft)
23.02.2010 13:10 2,8 C 91 % 994,3 hPa 0,0 mm 4,8 km/h (1 Bft) O-NO 67 0 min 1 UV-I 98 W/m 11,3 km/h (2 Bft)
23.02.2010 13:20 2,8 C 91 % 994,4 hPa 0,0 mm 4,8 km/h (1 Bft) NO 45 0 min 1 UV-I 93 W/m 11,3 km/h (2 Bft)
23.02.2010 13:30 2,8 C 91 % 994,4 hPa 0,3 mm 3,2 km/h (1 Bft) O-NO 67 0 min 1 UV-I 104 W/m 11,3 km/h (2 Bft)
23.02.2010 13:40 2,7 C 91 % 994,4 hPa 0,0 mm 3,2 km/h (1 Bft) O 90 0 min 1 UV-I 107 W/m 8,0 km/h (2 Bft)
23.02.2010 13:50 2,7 C 91 % 994,5 hPa 0,3 mm 3,2 km/h (1 Bft) O 90 0 min 1 UV-I 90 W/m 8,0 km/h (2 Bft)
23.02.2010 14:00 2,7 C 91 % 994,6 hPa 0,0 mm 1,6 km/h (1 Bft) O 90 0 min 1 UV-I 81 W/m 6,4 km/h (2 Bft)
23.02.2010 14:10 2,7 C 91 % 994,5 hPa 0,0 mm 1,6 km/h (1 Bft) O-NO 67 0 min 1 UV-I 81 W/m 8,0 km/h (2 Bft)
23.02.2010 14:20 2,7 C 91 % 994,6 hPa 0,3 mm 1,6 km/h (1 Bft) O-NO 67 0 min 1 UV-I 77 W/m 6,4 km/h (2 Bft)
23.02.2010 14:30 2,7 C 91 % 994,6 hPa 0,0 mm 1,6 km/h (1 Bft) O 90 0 min 0 UV-I 72 W/m 6,4 km/h (2 Bft)
23.02.2010 14:40 2,7 C 91 % 994,8 hPa 0,0 mm 3,2 km/h (1 Bft) O 90 0 min 0 UV-I 77 W/m 8,0 km/h (2 Bft)
23.02.2010 14:50 2,7 C 91 % 994,9 hPa 0,0 mm 1,6 km/h (1 Bft) O-NO 67 0 min 0 UV-I 63 W/m 8,0 km/h (2 Bft)
23.02.2010 15:00 2,6 C 91 % 995,0 hPa 0,3 mm 3,2 km/h (1 Bft) O-NO 67 0 min 0 UV-I 60 W/m 11,3 km/h (2 Bft)
23.02.2010 15:10 2,6 C 91 % 995,1 hPa 0,0 mm 3,2 km/h (1 Bft) O 90 0 min 0 UV-I 60 W/m 9,7 km/h (2 Bft)
23.02.2010 15:20 2,6 C 91 % 995,0 hPa 0,3 mm 3,2 km/h (1 Bft) O-NO 67 0 min 0 UV-I 60 W/m 8,0 km/h (2 Bft)
23.02.2010 15:30 2,5 C 91 % 995,2 hPa 0,0 mm 1,6 km/h (1 Bft) O-NO 67 0 min 0 UV-I 60 W/m 8,0 km/h (2 Bft)
23.02.2010 15:40 2,4 C 91 % 995,3 hPa 0,0 mm 1,6 km/h (1 Bft) N 360 0 min 0 UV-I 46 W/m 4,8 km/h (1 Bft)
23.02.2010 15:50 2,4 C 91 % 995,2 hPa 0,0 mm 1,6 km/h (1 Bft) N-NO 22 0 min 0 UV-I 42 W/m 4,8 km/h (1 Bft)
23.02.2010 16:00 2,3 C 91 % 995,2 hPa 0,3 mm 1,4 km/h (1 Bft) N-NO 28 0 min 0 UV-I 59 W/m 4,8 km/h (1 Bft)
23.02.2010 16:10 2,3 C 91 % 995,2 hPa 0,0 mm 3,2 km/h (1 Bft) O-NO 67 0 min 0 UV-I 62 W/m 8,0 km/h (2 Bft)
23.02.2010 16:20 2,3 C 91 % 995,3 hPa 0,3 mm 1,6 km/h (1 Bft) NO 45 0 min 0 UV-I 56 W/m 4,8 km/h (1 Bft)
23.02.2010 16:30 2,2 C 91 % 995,4 hPa 0,0 mm 1,6 km/h (1 Bft) O-NO 67 0 min 0 UV-I 46 W/m 6,4 km/h (2 Bft)
23.02.2010 16:40 2,2 C 91 % 995,4 hPa 0,0 mm 1,6 km/h (1 Bft) NO 45 0 min 0 UV-I 33 W/m 4,8 km/h (1 Bft)
23.02.2010 16:50 2,1 C 91 % 995,4 hPa 0,3 mm 1,6 km/h (1 Bft) O 90 0 min 0 UV-I 28 W/m 4,8 km/h (1 Bft)
23.02.2010 17:00 2,1 C 91 % 995,4 hPa 0,0 mm 1,6 km/h (1 Bft) O 90 0 min 0 UV-I 28 W/m 4,8 km/h (1 Bft)
23.02.2010 17:10 2,0 C 91 % 995,5 hPa 0,0 mm 1,6 km/h (1 Bft) NO 45 0 min 0 UV-I 19 W/m 6,4 km/h (2 Bft)
23.02.2010 17:20 1,9 C 91 % 995,5 hPa 0,3 mm 0,0 km/h (0 Bft) NO 45 0 min 0 UV-I 16 W/m 3,2 km/h (1 Bft)
23.02.2010 17:30 1,9 C 91 % 995,7 hPa 0,0 mm 0,0 km/h (0 Bft) NO 45 0 min 0 UV-I 9 W/m 3,2 km/h (1 Bft)
23.02.2010 17:40 1,8 C 91 % 995,7 hPa 0,0 mm 0,0 km/h (0 Bft) NO 45 0 min 0 UV-I 5 W/m 3,2 km/h (1 Bft)
23.02.2010 17:50 1,8 C 91 % 995,7 hPa 0,0 mm 0,0 km/h (0 Bft) NO 45 0 min 0 UV-I 0 W/m 3,2 km/h (1 Bft)
23.02.2010 18:00 1,7 C 91 % 995,7 hPa 0,0 mm 0,0 km/h (0 Bft) N 0 0 min 0 UV-I 0 W/m 0,0 km/h (0 Bft)
23.02.2010 18:10 1,7 C 91 % 995,8 hPa 0,0 mm 0,0 km/h (0 Bft) NO 45 0 min 0 UV-I 0 W/m 3,2 km/h (1 Bft)
23.02.2010 18:20 1,7 C 91 % 995,9 hPa 0,0 mm 0,0 km/h (0 Bft) NO 45 0 min 0 UV-I 0 W/m 3,2 km/h (1 Bft)
23.02.2010 18:30 1,7 C 91 % 996,0 hPa 0,0 mm 0,0 km/h (0 Bft) NO 45 0 min 0 UV-I 0 W/m 1,6 km/h (1 Bft)
23.02.2010 18:40 1,6 C 91 % 996,0 hPa 0,0 mm 0,0 km/h (0 Bft) NO 45 0 min 0 UV-I 0 W/m 1,6 km/h (1 Bft)
23.02.2010 18:50 1,6 C 91 % 996,1 hPa 0,0 mm 0,0 km/h (0 Bft) NO 45 0 min 0 UV-I 0 W/m 3,2 km/h (1 Bft)
23.02.2010 19:00 1,6 C 91 % 996,1 hPa 0,3 mm 1,6 km/h (1 Bft) NO 45 0 min 0 UV-I 0 W/m 8,0 km/h (2 Bft)
23.02.2010 19:10 1,7 C 91 % 996,0 hPa 0,0 mm 4,8 km/h (1 Bft) O 90 0 min 0 UV-I 0 W/m 11,3 km/h (2 Bft)
23.02.2010 19:20 1,7 C 91 % 996,1 hPa 0,0 mm 6,4 km/h (2 Bft) O 90 0 min 0 UV-I 0 W/m 19,3 km/h (3 Bft)
23.02.2010 19:30 1,7 C 91 % 996,1 hPa 0,0 mm 8,0 km/h (2 Bft) O 90 0 min 0 UV-I 0 W/m 20,9 km/h (4 Bft)
23.02.2010 19:40 1,8 C 91 % 996,1 hPa 0,0 mm 8,0 km/h (2 Bft) O 90 0 min 0 UV-I 0 W/m 20,9 km/h (4 Bft)
23.02.2010 19:50 1,8 C 91 % 996,1 hPa 0,0 mm 6,4 km/h (2 Bft) O 90 0 min 0 UV-I 0 W/m 20,9 km/h (4 Bft)
23.02.2010 20:00 1,8 C 91 % 996,1 hPa 0,0 mm 8,0 km/h (2 Bft) O 90 0 min 0 UV-I 0 W/m 19,3 km/h (3 Bft)
23.02.2010 20:10 1,8 C 91 % 996,2 hPa 0,0 mm 4,8 km/h (1 Bft) O 90 0 min 0 UV-I 0 W/m 14,5 km/h (3 Bft)
23.02.2010 20:20 1,8 C 91 % 996,2 hPa 0,0 mm 4,8 km/h (1 Bft) O-NO 67 0 min 0 UV-I 0 W/m 12,9 km/h (3 Bft)
23.02.2010 20:30 1,8 C 91 % 996,1 hPa 0,0 mm 6,4 km/h (2 Bft) O 90 0 min 0 UV-I 0 W/m 16,1 km/h (3 Bft)
23.02.2010 20:40 1,9 C 91 % 996,1 hPa 0,0 mm 4,8 km/h (1 Bft) O 90 0 min 0 UV-I 0 W/m 14,5 km/h (3 Bft)
23.02.2010 20:50 1,9 C 91 % 996,1 hPa 0,0 mm 4,8 km/h (1 Bft) O 90 0 min 0 UV-I 0 W/m 11,3 km/h (2 Bft)
23.02.2010 21:00 1,9 C 91 % 996,1 hPa 0,0 mm 4,8 km/h (1 Bft) O 90 0 min 0 UV-I 0 W/m 11,3 km/h (2 Bft)
23.02.2010 21:10 1,9 C 91 % 996,3 hPa 0,0 mm 4,8 km/h (1 Bft) O 90 0 min 0 UV-I 0 W/m 11,3 km/h (2 Bft)
23.02.2010 21:20 1,9 C 91 % 996,3 hPa 0,0 mm 3,2 km/h (1 Bft) O-NO 67 0 min 0 UV-I 0 W/m 6,4 km/h (2 Bft)
23.02.2010 21:30 1,9 C 91 % 996,3 hPa 0,0 mm 1,6 km/h (1 Bft) O-SO 112 0 min 0 UV-I 0 W/m 6,4 km/h (2 Bft)
23.02.2010 21:40 2,0 C 91 % 996,4 hPa 0,0 mm 3,2 km/h (1 Bft) O 90 0 min 0 UV-I 0 W/m 12,9 km/h (3 Bft)
23.02.2010 21:50 2,0 C 92 % 996,4 hPa 0,0 mm 4,8 km/h (1 Bft) O-SO 112 0 min 0 UV-I 0 W/m 11,3 km/h (2 Bft)
23.02.2010 22:00 2,1 C 92 % 996,4 hPa 0,0 mm 6,4 km/h (2 Bft) O 90 0 min 0 UV-I 0 W/m 16,1 km/h (3 Bft)
23.02.2010 22:10 2,1 C 92 % 996,4 hPa 0,0 mm 6,4 km/h (2 Bft) O-SO 112 0 min 0 UV-I 0 W/m 20,9 km/h (4 Bft)
23.02.2010 22:20 2,1 C 91 % 996,4 hPa 0,0 mm 6,4 km/h (2 Bft) O 90 0 min 0 UV-I 0 W/m 16,1 km/h (3 Bft)
23.02.2010 22:30 2,2 C 91 % 996,4 hPa 0,0 mm 4,8 km/h (1 Bft) O-SO 112 0 min 0 UV-I 0 W/m 14,5 km/h (3 Bft)
23.02.2010 22:40 2,2 C 91 % 996,3 hPa 0,0 mm 6,4 km/h (2 Bft) O-SO 112 0 min 0 UV-I 0 W/m 20,9 km/h (4 Bft)
23.02.2010 22:50 2,2 C 91 % 996,3 hPa 0,0 mm 9,7 km/h (2 Bft) O-SO 112 0 min 0 UV-I 0 W/m 19,3 km/h (3 Bft)
23.02.2010 23:00 2,2 C 91 % 996,3 hPa 0,3 mm 8,0 km/h (2 Bft) O 90 0 min 0 UV-I 0 W/m 17,7 km/h (3 Bft)
23.02.2010 23:10 2,2 C 91 % 996,4 hPa 0,0 mm 6,4 km/h (2 Bft) O-SO 112 0 min 0 UV-I 0 W/m 17,7 km/h (3 Bft)
23.02.2010 23:20 2,2 C 91 % 996,5 hPa 0,0 mm 4,8 km/h (1 Bft) O-SO 112 0 min 0 UV-I 0 W/m 12,9 km/h (3 Bft)
23.02.2010 23:30 2,2 C 91 % 996,4 hPa 0,0 mm 6,4 km/h (2 Bft) O-SO 112 0 min 0 UV-I 0 W/m 19,3 km/h (3 Bft)
23.02.2010 23:40 2,2 C 91 % 996,4 hPa 0,0 mm 6,4 km/h (2 Bft) O 90 0 min 0 UV-I 0 W/m 17,7 km/h (3 Bft)
23.02.2010 23:50 2,1 C 91 % 996,3 hPa 0,0 mm 10,2 km/h (2 Bft) O 80 0 min 0 UV-I 0 W/m 19,3 km/h (3 Bft)
_ Min-Zeit 18:30 00:30 00:00 - 07:20 - - - - - 18:00
Minimum _ 1,6 C 85 % 984,8 hPa - 0,0 km/h (0 Bft) - - - - - 0,0 km/h (0 Bft)
_ Max-Zeit 01:00 11:50 23:20 01:10 00:50 - - 00:00 11:50 11:50 00:50
Maximum _ 8,8 C 92 % 996,5 hPa 0,3 mm 11,3 km/h
S-SW (2 Bft)
- - 0 min 1 UV-I 158 W/m 30,6 km/h
W-SW (5 Bft)
Durchschnitt _ 4,0 C 90 % 992,3 hPa #6,4 mm 4,2 km/h (1 Bft) O - #0 min. 1 UV-I 67 W/m 12,4 km/h (3 Bft)